createdAt,value
2023-01-09T00:01:25.790Z,30.73
2023-01-09T00:03:54.097Z,30.50
2023-01-09T00:06:22.161Z,30.13
2023-01-09T00:08:50.490Z,29.88
2023-01-09T00:11:18.731Z,31.63
2023-01-09T00:13:47.259Z,29.80
2023-01-09T00:16:15.587Z,28.52
2023-01-09T00:18:45.310Z,31.63
2023-01-09T00:21:13.818Z,28.60
2023-01-09T00:23:42.068Z,31.15
2023-01-09T00:26:11.778Z,30.42
2023-01-09T00:28:40.031Z,29.88
2023-01-09T00:31:08.724Z,30.25
2023-01-09T00:33:38.239Z,28.92
2023-01-09T00:36:08.799Z,28.85
2023-01-09T00:38:37.539Z,29.20
2023-01-09T00:41:05.939Z,28.38
2023-01-09T00:43:36.039Z,29.23
2023-01-09T00:46:05.524Z,26.50
2023-01-09T00:48:33.754Z,27.02
2023-01-09T00:51:01.947Z,27.58
2023-01-09T00:53:32.749Z,27.00
2023-01-09T00:56:02.387Z,26.90
2023-01-09T00:58:30.491Z,25.98
2023-01-09T01:00:58.858Z,25.98
2023-01-09T01:03:27.204Z,26.15
2023-01-09T01:06:12.650Z,27.80
2023-01-09T01:08:42.194Z,26.35
2023-01-09T01:11:11.222Z,25.80
2023-01-09T01:13:39.946Z,26.75
2023-01-09T01:16:08.610Z,26.42
2023-01-09T01:18:36.759Z,25.50
2023-01-09T01:21:07.625Z,25.38
2023-01-09T01:23:35.916Z,24.75
2023-01-09T01:26:08.867Z,25.40
2023-01-09T01:28:37.095Z,27.35
2023-01-09T01:31:05.316Z,25.13
2023-01-09T01:33:35.187Z,25.00
2023-01-09T01:36:04.336Z,26.48
2023-01-09T01:38:32.433Z,26.27
2023-01-09T01:41:00.743Z,26.15
2023-01-09T01:43:30.412Z,24.52
2023-01-09T01:45:58.666Z,23.63
2023-01-09T01:48:28.399Z,23.50
2023-01-09T01:50:58.606Z,23.77
2023-01-09T01:53:28.255Z,23.92
2023-01-09T01:56:01.611Z,23.58
2023-01-09T01:58:31.182Z,23.92
2023-01-09T02:00:59.422Z,24.52
2023-01-09T02:03:28.485Z,23.05
2023-01-09T02:05:56.725Z,24.48
2023-01-09T02:08:24.839Z,23.83
2023-01-09T02:10:53.022Z,22.83
2023-01-09T02:13:21.095Z,24.15
2023-01-09T02:15:58.468Z,20.83
2023-01-09T02:18:54.215Z,22.80
2023-01-09T02:21:26.001Z,22.55
2023-01-09T02:24:26.650Z,21.33
2023-01-09T02:27:08.971Z,21.45
2023-01-09T02:30:10.675Z,22.83
2023-01-09T02:32:44.960Z,20.45
2023-01-09T02:35:20.781Z,21.92
2023-01-09T02:37:53.095Z,20.88
2023-01-09T02:40:23.583Z,21.90
2023-01-09T02:42:51.868Z,21.20
2023-01-09T02:45:21.485Z,20.70
2023-01-09T02:47:49.639Z,21.50
2023-01-09T02:50:18.817Z,20.50
2023-01-09T02:53:10.850Z,19.58
2023-01-09T02:55:52.305Z,21.20
2023-01-09T02:58:25.059Z,21.88
2023-01-09T03:00:58.414Z,20.40
2023-01-09T03:03:28.695Z,20.05
2023-01-09T03:06:00.651Z,19.65
2023-01-09T03:08:32.579Z,19.05
2023-01-09T03:11:01.779Z,20.02
2023-01-09T03:13:32.681Z,19.17
2023-01-09T03:16:03.545Z,17.90
2023-01-09T03:18:31.720Z,19.23
2023-01-09T03:20:59.807Z,18.45
2023-01-09T03:23:28.024Z,19.27
2023-01-09T03:25:56.105Z,18.95
2023-01-09T03:28:27.456Z,19.65
2023-01-09T03:30:55.704Z,19.35
2023-01-09T03:33:25.145Z,19.77
2023-01-09T03:35:53.290Z,18.25
2023-01-09T03:38:21.340Z,21.52
2023-01-09T03:40:49.645Z,17.83
2023-01-09T03:43:17.851Z,18.05
2023-01-09T03:45:46.010Z,18.98
2023-01-09T03:48:14.153Z,17.73
2023-01-09T03:50:45.967Z,16.83
2023-01-09T03:53:14.405Z,17.40
2023-01-09T03:55:45.135Z,17.00
2023-01-09T03:58:13.259Z,16.75
2023-01-09T04:00:41.456Z,17.63
2023-01-09T04:03:09.868Z,17.13
2023-01-09T04:05:38.011Z,17.60
2023-01-09T04:08:07.711Z,17.50
2023-01-09T04:10:35.749Z,17.95
2023-01-09T04:13:04.059Z,15.82
2023-01-09T04:15:32.170Z,17.75
2023-01-09T04:18:00.404Z,17.52
2023-01-09T04:20:28.757Z,17.60
2023-01-09T04:22:57.444Z,15.68
2023-01-09T04:25:27.096Z,18.42
2023-01-09T04:27:55.239Z,17.23
2023-01-09T04:30:23.419Z,17.15
2023-01-09T04:32:52.078Z,17.17
2023-01-09T04:35:20.674Z,17.25
2023-01-09T04:37:48.897Z,16.75
2023-01-09T04:40:19.890Z,15.68
2023-01-09T04:42:49.519Z,17.00
2023-01-09T04:45:17.629Z,15.20
2023-01-09T04:47:46.012Z,16.25
2023-01-09T04:50:14.188Z,17.17
2023-01-09T04:52:42.445Z,14.75
2023-01-09T04:55:11.048Z,16.65
2023-01-09T04:57:39.274Z,15.00
2023-01-09T05:00:12.389Z,14.10
2023-01-09T05:02:40.813Z,13.52
2023-01-09T05:05:11.497Z,16.40
2023-01-09T05:07:40.172Z,14.65
2023-01-09T05:10:09.239Z,14.05
2023-01-09T05:12:37.676Z,15.13
2023-01-09T05:15:07.055Z,14.10
2023-01-09T05:17:36.674Z,14.73
2023-01-09T05:20:05.215Z,16.50
2023-01-09T05:22:33.467Z,14.18
2023-01-09T05:25:01.595Z,14.82
2023-01-09T05:27:30.511Z,14.43
2023-01-09T05:29:58.636Z,13.43
2023-01-09T05:32:26.896Z,13.80
2023-01-09T05:34:56.383Z,14.20
2023-01-09T05:37:24.547Z,14.68
2023-01-09T05:39:52.657Z,13.73
2023-01-09T05:42:20.791Z,13.45
2023-01-09T05:44:48.973Z,13.75
2023-01-09T05:47:17.375Z,12.90
2023-01-09T05:49:45.427Z,12.80
2023-01-09T05:52:14.971Z,12.73
2023-01-09T05:54:43.031Z,13.70
2023-01-09T05:57:11.171Z,13.65
2023-01-09T05:59:39.320Z,11.95
2023-01-09T06:02:07.522Z,13.55
2023-01-09T06:04:35.649Z,13.52
2023-01-09T06:07:03.830Z,11.98
2023-01-09T06:09:33.387Z,12.85
2023-01-09T06:12:01.537Z,12.95
2023-01-09T06:14:29.857Z,12.25
2023-01-09T06:16:58.034Z,12.73
2023-01-09T06:19:26.108Z,12.93
2023-01-09T06:21:54.291Z,12.13
2023-01-09T06:24:22.490Z,12.77
2023-01-09T06:26:51.935Z,10.80
2023-01-09T06:29:20.279Z,12.20
2023-01-09T06:31:48.355Z,12.20
2023-01-09T06:34:16.614Z,12.82
2023-01-09T06:36:44.726Z,12.90
2023-01-09T06:39:14.187Z,11.98
2023-01-09T06:41:42.365Z,12.43
2023-01-09T06:44:11.922Z,11.38
2023-01-09T06:46:40.176Z,12.07
2023-01-09T06:49:10.046Z,12.02
2023-01-09T06:51:38.463Z,11.07
2023-01-09T06:54:06.603Z,11.73
2023-01-09T06:56:34.857Z,12.55
2023-01-09T06:59:02.895Z,12.25
2023-01-09T07:01:32.500Z,13.52
2023-01-09T07:04:00.756Z,11.65
2023-01-09T07:06:29.510Z,12.00
2023-01-09T07:08:57.745Z,13.57
2023-01-09T07:11:25.842Z,16.48
2023-01-09T07:13:54.102Z,19.23
2023-01-09T07:16:22.437Z,16.55
2023-01-09T07:18:52.582Z,19.90
2023-01-09T07:21:20.840Z,26.80
2023-01-09T07:23:48.952Z,24.10
2023-01-09T07:26:17.163Z,25.42
2023-01-09T07:28:45.368Z,29.58
2023-01-09T07:31:13.720Z,26.83
2023-01-09T07:33:41.918Z,23.65
2023-01-09T07:36:12.583Z,25.77
2023-01-09T07:38:40.918Z,26.10
2023-01-09T07:41:09.235Z,24.52
2023-01-09T07:43:37.578Z,27.13
2023-01-09T07:46:06.596Z,25.67
2023-01-09T07:48:34.967Z,27.67
2023-01-09T07:51:03.087Z,25.92
2023-01-09T07:53:32.716Z,26.70
2023-01-09T07:56:00.776Z,25.70
2023-01-09T07:58:28.960Z,28.85
2023-01-09T08:00:57.102Z,28.85
2023-01-09T08:03:26.893Z,32.33
2023-01-09T08:05:55.023Z,33.85
2023-01-09T08:08:23.592Z,29.50
2023-01-09T08:10:53.155Z,28.50
2023-01-09T08:13:21.293Z,28.92
2023-01-09T08:15:49.480Z,32.03
2023-01-09T08:18:17.696Z,36.15
2023-01-09T08:20:45.972Z,34.45
2023-01-09T08:23:14.046Z,33.63
2023-01-09T08:25:42.127Z,39.25
2023-01-09T08:28:11.703Z,35.03
2023-01-09T08:30:39.838Z,58.83
2023-01-09T08:33:07.983Z,49.47
2023-01-09T08:35:37.215Z,52.33
2023-01-09T08:38:05.391Z,45.72
2023-01-09T08:40:33.565Z,47.80
2023-01-09T08:43:18.888Z,52.92
2023-01-09T08:46:05.903Z,46.88
2023-01-09T08:48:34.265Z,51.78
2023-01-09T08:51:02.759Z,52.35
2023-01-09T08:53:31.658Z,47.83
2023-01-09T08:56:00.215Z,45.97
2023-01-09T08:58:28.394Z,48.53
2023-01-09T09:00:58.998Z,48.95
2023-01-09T09:03:27.262Z,45.67
2023-01-09T09:05:55.435Z,43.05
2023-01-09T09:08:23.607Z,42.22
2023-01-09T09:10:51.897Z,46.17
2023-01-09T09:13:20.164Z,42.22
2023-01-09T09:15:48.253Z,40.83
2023-01-09T09:18:17.833Z,42.08
2023-01-09T09:20:46.044Z,45.33
2023-01-09T09:23:14.209Z,39.42
2023-01-09T09:25:42.421Z,39.17
2023-01-09T09:28:11.015Z,40.28
2023-01-09T09:30:39.622Z,39.85
2023-01-09T09:33:07.899Z,40.28
2023-01-09T09:35:38.059Z,37.33
2023-01-09T09:38:06.423Z,38.03
2023-01-09T09:41:04.849Z,37.80
2023-01-09T09:44:14.096Z,36.30
2023-01-09T09:46:43.811Z,35.72
2023-01-09T09:49:14.423Z,36.20
2023-01-09T09:52:09.825Z,36.67
2023-01-09T09:54:41.191Z,43.15
2023-01-09T09:57:11.988Z,35.42
2023-01-09T09:59:40.220Z,33.90
2023-01-09T10:02:16.178Z,36.05
2023-01-09T10:04:46.740Z,32.65
2023-01-09T10:07:18.258Z,35.05
2023-01-09T10:09:48.504Z,33.03
2023-01-09T10:12:27.154Z,33.83
2023-01-09T10:14:55.556Z,35.47
2023-01-09T10:17:30.934Z,34.08
2023-01-09T10:20:25.890Z,31.58
2023-01-09T10:22:58.441Z,32.90
2023-01-09T10:25:29.340Z,32.00
2023-01-09T10:28:03.515Z,30.45
2023-01-09T10:30:36.403Z,30.55
2023-01-09T10:33:10.883Z,31.92
2023-01-09T10:35:50.342Z,31.95
2023-01-09T10:38:22.706Z,31.65
2023-01-09T10:40:52.600Z,33.00
2023-01-09T10:43:26.635Z,34.72
2023-01-09T10:45:55.397Z,37.55
2023-01-09T10:48:25.810Z,38.58
2023-01-09T10:50:54.131Z,40.00
2023-01-09T10:53:24.688Z,37.40
2023-01-09T10:55:54.332Z,36.75
2023-01-09T10:58:23.309Z,39.10
2023-01-09T11:00:51.916Z,37.97
2023-01-09T11:03:21.104Z,40.30
2023-01-09T11:05:51.837Z,35.88
2023-01-09T11:08:25.669Z,35.40
2023-01-09T11:10:55.000Z,35.05
2023-01-09T11:13:24.350Z,33.92
2023-01-09T11:16:16.320Z,35.58
2023-01-09T11:18:49.956Z,35.58
2023-01-09T11:21:33.610Z,36.05
2023-01-09T11:24:29.591Z,34.70
2023-01-09T11:27:23.756Z,36.10
2023-01-09T11:30:16.938Z,34.95
2023-01-09T11:32:46.134Z,33.70
2023-01-09T11:35:20.931Z,31.08
2023-01-09T11:37:50.135Z,32.90
2023-01-09T11:40:21.673Z,36.45
2023-01-09T11:43:07.244Z,39.60
2023-01-09T11:45:35.976Z,42.47
2023-01-09T11:48:04.666Z,42.15
2023-01-09T11:50:33.043Z,44.53
2023-01-09T11:53:14.355Z,44.35
2023-01-09T11:55:44.519Z,40.25
2023-01-09T11:58:14.104Z,45.17
2023-01-09T12:00:48.029Z,48.00
2023-01-09T12:03:20.046Z,59.17
2023-01-09T12:05:51.754Z,55.80
2023-01-09T12:08:25.615Z,57.53
2023-01-09T12:11:13.140Z,59.28
2023-01-09T12:13:51.078Z,62.35
2023-01-09T12:16:24.558Z,66.90
2023-01-09T12:19:05.673Z,71.65
2023-01-09T12:21:37.809Z,69.68
2023-01-09T12:24:40.686Z,77.63
2023-01-09T12:27:17.554Z,67.90
2023-01-09T12:30:06.238Z,64.35
2023-01-09T12:32:41.369Z,62.55
2023-01-09T12:35:18.725Z,64.10
2023-01-09T12:38:17.827Z,62.70
2023-01-09T12:40:57.051Z,69.70
2023-01-09T12:43:30.628Z,72.60
2023-01-09T12:46:04.854Z,73.63
2023-01-09T12:48:42.409Z,76.45
2023-01-09T12:51:38.629Z,75.38
2023-01-09T12:54:09.618Z,72.68
2023-01-09T12:56:39.183Z,76.25
2023-01-09T12:59:16.625Z,73.05
2023-01-09T13:01:46.561Z,75.22
2023-01-09T13:04:18.460Z,72.53
2023-01-09T13:06:49.193Z,76.35
2023-01-09T13:09:23.182Z,71.88
2023-01-09T13:11:54.795Z,71.28
2023-01-09T13:14:28.742Z,69.10
2023-01-09T13:16:56.981Z,70.43
2023-01-09T13:19:26.532Z,72.80
2023-01-09T13:21:54.792Z,70.93
2023-01-09T13:24:25.951Z,67.45
2023-01-09T13:26:55.461Z,70.75
2023-01-09T13:29:26.541Z,71.15
2023-01-09T13:32:05.795Z,74.00
2023-01-09T13:34:34.914Z,73.40
2023-01-09T13:37:03.101Z,91.90
2023-01-09T13:39:32.345Z,92.13
2023-01-09T13:42:19.044Z,86.72
2023-01-09T13:44:49.341Z,92.05
2023-01-09T13:47:19.853Z,94.70
2023-01-09T13:50:29.833Z,106.07
2023-01-09T13:52:58.229Z,101.85
2023-01-09T13:55:36.190Z,102.05
2023-01-09T13:58:22.868Z,102.40
2023-01-09T14:01:00.366Z,103.90
2023-01-09T14:03:33.553Z,104.07
2023-01-09T14:06:21.540Z,104.30
2023-01-09T14:08:50.889Z,101.35
2023-01-09T14:11:22.830Z,102.97
2023-01-09T14:14:07.656Z,98.30
2023-01-09T14:16:40.145Z,100.40
2023-01-09T14:19:27.088Z,94.55
2023-01-09T14:21:56.322Z,99.70
2023-01-09T14:24:26.695Z,99.72
2023-01-09T14:26:57.279Z,103.00
2023-01-09T14:29:46.095Z,99.85
2023-01-09T14:32:48.581Z,96.53
2023-01-09T14:35:28.735Z,96.68
2023-01-09T14:38:03.226Z,96.20
2023-01-09T14:40:31.349Z,99.60
2023-01-09T14:43:02.397Z,98.47
2023-01-09T14:45:31.732Z,98.68
2023-01-09T14:48:02.871Z,104.63
2023-01-09T14:50:34.110Z,103.43
2023-01-09T14:53:05.675Z,100.03
2023-01-09T14:55:37.389Z,99.28
2023-01-09T14:58:12.689Z,100.90
2023-01-09T15:00:48.757Z,97.75
2023-01-09T15:03:18.528Z,98.10
2023-01-09T15:05:46.820Z,84.63
2023-01-09T15:08:16.906Z,88.13
2023-01-09T15:10:45.259Z,81.95
2023-01-09T15:13:15.373Z,92.70
2023-01-09T15:15:46.104Z,85.78
2023-01-09T15:18:22.352Z,89.15
2023-01-09T15:20:55.137Z,89.45
2023-01-09T15:23:23.956Z,84.00
2023-01-09T15:25:52.036Z,97.53
2023-01-09T15:28:32.280Z,103.85
2023-01-09T15:31:04.218Z,92.97
2023-01-09T15:33:32.470Z,91.55
2023-01-09T15:36:02.695Z,86.38
2023-01-09T15:38:32.189Z,90.00
2023-01-09T15:41:01.283Z,89.28
2023-01-09T15:43:44.235Z,87.43
2023-01-09T15:46:12.520Z,108.63
2023-01-09T15:48:40.601Z,112.43
2023-01-09T15:51:10.495Z,125.93
2023-01-09T15:53:38.610Z,146.88
2023-01-09T15:56:09.033Z,146.85
2023-01-09T15:58:37.763Z,133.70
2023-01-09T16:01:08.371Z,135.90
2023-01-09T16:03:37.604Z,133.85
2023-01-09T16:06:08.757Z,129.13
2023-01-09T16:08:38.163Z,124.18
2023-01-09T16:11:07.543Z,123.38
2023-01-09T16:13:40.520Z,112.50
2023-01-09T16:16:10.280Z,115.47
2023-01-09T16:18:38.766Z,105.25
2023-01-09T16:21:31.362Z,113.35
2023-01-09T16:24:00.827Z,112.18
2023-01-09T16:26:29.307Z,106.10
2023-01-09T16:28:57.568Z,104.35
2023-01-09T16:31:29.158Z,104.35
2023-01-09T16:33:59.875Z,97.68
2023-01-09T16:36:28.773Z,103.35
2023-01-09T16:38:57.190Z,95.82
2023-01-09T16:41:42.779Z,97.22
2023-01-09T16:44:11.031Z,91.22
2023-01-09T16:46:43.339Z,86.32
2023-01-09T16:49:22.077Z,86.07
2023-01-09T16:51:50.347Z,80.68
2023-01-09T16:54:18.481Z,152.80
2023-01-09T16:56:48.490Z,152.35
2023-01-09T16:59:17.129Z,159.68
2023-01-09T17:01:46.579Z,195.90
2023-01-09T17:04:15.379Z,185.40
2023-01-09T17:06:43.780Z,202.30
2023-01-09T17:09:12.864Z,197.23
2023-01-09T17:11:41.148Z,205.82
2023-01-09T17:14:09.335Z,202.48
2023-01-09T17:16:37.525Z,196.13
2023-01-09T17:19:07.167Z,193.93
2023-01-09T17:21:35.268Z,195.00
2023-01-09T17:24:20.882Z,183.50
2023-01-09T17:27:07.932Z,179.43
2023-01-09T17:29:36.166Z,178.60
2023-01-09T17:32:04.373Z,173.90
2023-01-09T17:34:34.390Z,172.65
2023-01-09T17:37:04.364Z,166.77
2023-01-09T17:39:32.849Z,158.77
2023-01-09T17:42:02.001Z,138.30
2023-01-09T17:44:30.175Z,137.32
2023-01-09T17:46:58.309Z,142.32
2023-01-09T17:49:27.310Z,142.50
2023-01-09T17:51:56.803Z,150.38
2023-01-09T17:54:24.934Z,151.48
2023-01-09T17:56:54.194Z,136.93
2023-01-09T17:59:22.363Z,135.90
2023-01-09T18:01:50.465Z,134.23
2023-01-09T18:04:18.602Z,132.45
2023-01-09T18:06:48.292Z,135.55
2023-01-09T18:09:18.256Z,132.05
2023-01-09T18:11:47.685Z,127.65
2023-01-09T18:14:17.593Z,136.25
2023-01-09T18:16:45.807Z,139.23
2023-01-09T18:19:13.931Z,138.00
2023-01-09T18:21:42.100Z,148.57
2023-01-09T18:24:10.387Z,139.13
2023-01-09T18:26:39.975Z,142.82
2023-01-09T18:29:09.407Z,142.35
2023-01-09T18:31:37.645Z,141.38
2023-01-09T18:34:07.501Z,146.38
2023-01-09T18:36:35.714Z,138.02
2023-01-09T18:39:04.971Z,137.52
2023-01-09T18:41:33.197Z,144.95
2023-01-09T18:44:03.054Z,147.88
2023-01-09T18:46:32.407Z,138.48
2023-01-09T18:49:01.344Z,139.65
2023-01-09T18:51:29.708Z,146.30
2023-01-09T18:53:58.721Z,132.32
2023-01-09T18:56:27.269Z,132.88
2023-01-09T18:58:55.557Z,134.90
2023-01-09T19:01:25.167Z,130.43
2023-01-09T19:03:53.460Z,126.20
2023-01-09T19:06:21.648Z,124.15
2023-01-09T19:08:50.041Z,125.30
2023-01-09T19:11:18.143Z,127.20
2023-01-09T19:13:46.291Z,119.05
2023-01-09T19:16:14.732Z,120.38
2023-01-09T19:18:44.646Z,107.88
2023-01-09T19:21:14.109Z,113.85
2023-01-09T19:23:42.771Z,109.22
2023-01-09T19:26:16.665Z,111.53
2023-01-09T19:28:46.731Z,113.03
2023-01-09T19:31:15.165Z,109.47
2023-01-09T19:33:44.661Z,105.68
2023-01-09T19:36:12.931Z,106.95
2023-01-09T19:38:41.192Z,104.03
2023-01-09T19:41:13.152Z,102.70
2023-01-09T19:43:41.421Z,98.22
2023-01-09T19:46:09.984Z,99.80
2023-01-09T19:48:38.208Z,94.07
2023-01-09T19:51:08.949Z,100.32
2023-01-09T19:53:37.279Z,93.35
2023-01-09T19:56:12.369Z,91.97
2023-01-09T19:58:40.636Z,87.60
2023-01-09T20:01:10.370Z,92.18
2023-01-09T20:03:38.712Z,86.93
2023-01-09T20:06:10.061Z,91.63
2023-01-09T20:08:38.226Z,87.50
2023-01-09T20:11:06.715Z,85.50
2023-01-09T20:13:35.002Z,81.65
2023-01-09T20:16:03.669Z,83.18
2023-01-09T20:18:31.970Z,79.65
2023-01-09T20:21:00.139Z,83.47
2023-01-09T20:23:32.391Z,76.25
2023-01-09T20:26:00.894Z,80.88
2023-01-09T20:28:29.143Z,75.80
2023-01-09T20:30:57.309Z,74.03
2023-01-09T20:33:25.598Z,80.13
2023-01-09T20:35:53.819Z,74.00
2023-01-09T20:38:23.527Z,71.25
2023-01-09T20:40:57.309Z,71.78
2023-01-09T20:43:26.522Z,70.60
2023-01-09T20:45:54.819Z,70.03
2023-01-09T20:48:23.000Z,73.50
2023-01-09T20:50:51.148Z,68.15
2023-01-09T20:53:19.445Z,69.20
2023-01-09T20:55:47.582Z,68.32
2023-01-09T20:58:17.328Z,67.20
2023-01-09T21:00:45.473Z,65.32
2023-01-09T21:03:16.741Z,62.95
2023-01-09T21:05:44.887Z,61.85
2023-01-09T21:08:13.009Z,64.93
2023-01-09T21:10:41.191Z,62.97
2023-01-09T21:13:09.281Z,67.45
2023-01-09T21:15:39.979Z,61.80
2023-01-09T21:18:08.102Z,60.95
2023-01-09T21:20:36.202Z,63.08
2023-01-09T21:23:04.368Z,64.25
2023-01-09T21:25:32.436Z,60.70
2023-01-09T21:28:00.644Z,58.92
2023-01-09T21:30:28.723Z,57.30
2023-01-09T21:32:58.280Z,55.40
2023-01-09T21:35:26.471Z,56.28
2023-01-09T21:37:54.645Z,59.17
2023-01-09T21:40:23.100Z,56.75
2023-01-09T21:43:08.605Z,58.90
2023-01-09T21:45:56.062Z,54.97
2023-01-09T21:48:25.728Z,55.35
2023-01-09T21:50:53.935Z,54.40
2023-01-09T21:53:22.023Z,56.22
2023-01-09T21:55:50.143Z,52.22
2023-01-09T21:58:18.240Z,55.60
2023-01-09T22:00:46.379Z,54.00
2023-01-09T22:03:17.340Z,52.25
2023-01-09T22:05:46.894Z,55.25
2023-01-09T22:08:15.004Z,52.00
2023-01-09T22:10:43.053Z,51.08
2023-01-09T22:13:17.918Z,50.72
2023-01-09T22:15:47.517Z,49.70
2023-01-09T22:18:15.658Z,46.45
2023-01-09T22:20:43.780Z,48.10
2023-01-09T22:23:13.259Z,49.00
2023-01-09T22:25:42.061Z,45.60
2023-01-09T22:28:11.204Z,49.60
2023-01-09T22:30:40.789Z,48.20
2023-01-09T22:33:10.795Z,45.20
2023-01-09T22:35:38.916Z,46.95
2023-01-09T22:38:07.000Z,46.38
2023-01-09T22:40:37.539Z,46.17
2023-01-09T22:43:06.058Z,47.97
2023-01-09T22:45:34.813Z,45.25
2023-01-09T22:48:02.942Z,43.15
2023-01-09T22:50:31.094Z,46.67
2023-01-09T22:52:59.204Z,42.33
2023-01-09T22:55:27.407Z,43.10
2023-01-09T22:57:56.967Z,40.22
2023-01-09T23:00:25.284Z,40.20
2023-01-09T23:02:53.515Z,44.22
2023-01-09T23:05:21.791Z,40.03
2023-01-09T23:07:49.856Z,39.83
2023-01-09T23:10:18.123Z,41.35
2023-01-09T23:12:48.542Z,38.70
2023-01-09T23:15:18.306Z,39.47
2023-01-09T23:17:46.533Z,37.85
2023-01-09T23:20:14.671Z,38.08
2023-01-09T23:22:42.876Z,38.67
2023-01-09T23:25:14.356Z,36.88
2023-01-09T23:27:42.651Z,37.97
2023-01-09T23:30:12.665Z,39.58
2023-01-09T23:32:42.169Z,34.85
2023-01-09T23:35:10.658Z,38.72
2023-01-09T23:37:38.801Z,35.30
2023-01-09T23:40:07.709Z,33.60
2023-01-09T23:42:53.312Z,35.13
2023-01-09T23:45:22.938Z,36.45
2023-01-09T23:47:52.608Z,33.33
2023-01-09T23:50:21.060Z,35.75
2023-01-09T23:52:49.114Z,35.13
2023-01-09T23:55:17.437Z,33.05
2023-01-09T23:57:45.492Z,34.45
